createdAt,value
2023-01-13T00:01:16.741Z,5.39
2023-01-13T00:03:43.710Z,5.47
2023-01-13T00:06:14.768Z,5.53
2023-01-13T00:08:41.372Z,5.56
2023-01-13T00:11:09.259Z,5.69
2023-01-13T00:13:38.112Z,5.78
2023-01-13T00:16:07.316Z,5.72
2023-01-13T00:18:34.792Z,5.71
2023-01-13T00:21:10.637Z,5.59
2023-01-13T00:23:37.353Z,5.60
2023-01-13T00:26:13.087Z,5.65
2023-01-13T00:28:39.733Z,5.47
2023-01-13T00:31:11.873Z,5.32
2023-01-13T00:33:38.908Z,5.09
2023-01-13T00:36:07.488Z,5.00
2023-01-13T00:38:35.842Z,4.94
2023-01-13T00:41:07.798Z,4.90
2023-01-13T00:43:35.946Z,4.88
2023-01-13T00:46:03.754Z,4.83
2023-01-13T00:48:31.198Z,4.89
2023-01-13T00:50:59.741Z,4.91
2023-01-13T00:53:27.600Z,4.87
2023-01-13T00:56:14.508Z,4.75
2023-01-13T00:58:42.220Z,4.74
2023-01-13T01:01:15.338Z,4.92
2023-01-13T01:03:42.001Z,4.77
2023-01-13T01:06:15.650Z,4.66
2023-01-13T01:08:42.947Z,4.53
2023-01-13T01:11:12.963Z,4.61
2023-01-13T01:13:40.529Z,4.60
2023-01-13T01:16:09.175Z,4.55
2023-01-13T01:18:39.151Z,4.52
2023-01-13T01:21:06.463Z,4.56
2023-01-13T01:23:34.128Z,4.47
2023-01-13T01:26:08.323Z,4.60
2023-01-13T01:28:35.495Z,4.60
2023-01-13T01:31:19.659Z,4.65
2023-01-13T01:33:49.221Z,4.77
2023-01-13T01:36:18.417Z,4.78
2023-01-13T01:38:45.507Z,4.68
2023-01-13T01:41:18.217Z,4.71
2023-01-13T01:44:04.072Z,4.68
2023-01-13T01:46:42.501Z,4.77
2023-01-13T01:49:25.140Z,4.65
2023-01-13T01:52:10.864Z,4.74
2023-01-13T01:54:56.232Z,4.75
2023-01-13T01:57:46.884Z,4.84
2023-01-13T02:00:14.023Z,4.94
2023-01-13T02:02:43.964Z,4.94
2023-01-13T02:05:10.982Z,4.99
2023-01-13T02:07:40.169Z,5.02
2023-01-13T02:10:11.814Z,5.22
2023-01-13T02:12:40.361Z,5.21
2023-01-13T02:15:27.238Z,5.15
2023-01-13T02:18:07.567Z,5.11
2023-01-13T02:20:53.083Z,4.96
2023-01-13T02:24:05.625Z,4.98
2023-01-13T02:26:50.854Z,5.01
2023-01-13T02:30:06.862Z,4.96
2023-01-13T02:32:42.645Z,5.00
2023-01-13T02:35:26.564Z,5.00
2023-01-13T02:37:55.715Z,4.93
2023-01-13T02:40:56.744Z,5.18
2023-01-13T02:43:50.473Z,5.22
2023-01-13T02:46:34.873Z,5.21
2023-01-13T02:49:06.636Z,5.02
2023-01-13T02:51:34.686Z,4.94
2023-01-13T02:54:06.732Z,4.93
2023-01-13T02:56:37.241Z,4.89
2023-01-13T02:59:05.138Z,4.94
2023-01-13T03:01:31.863Z,5.01
2023-01-13T03:03:58.693Z,4.97
2023-01-13T03:06:46.584Z,5.01
2023-01-13T03:09:34.259Z,4.92
2023-01-13T03:12:08.959Z,4.92
2023-01-13T03:14:56.755Z,4.92
2023-01-13T03:17:39.338Z,4.84
2023-01-13T03:20:22.065Z,4.84
2023-01-13T03:23:13.456Z,4.84
2023-01-13T03:25:55.630Z,4.75
2023-01-13T03:28:31.774Z,4.89
2023-01-13T03:31:05.320Z,4.85
2023-01-13T03:33:37.548Z,4.93
2023-01-13T03:36:10.729Z,4.88
2023-01-13T03:38:42.971Z,4.82
2023-01-13T03:41:19.048Z,4.76
2023-01-13T03:44:12.411Z,4.66
2023-01-13T03:46:48.280Z,4.69
2023-01-13T03:49:22.172Z,4.55
2023-01-13T03:51:55.621Z,4.69
2023-01-13T03:54:24.667Z,4.84
2023-01-13T03:56:57.348Z,4.76
2023-01-13T03:59:31.651Z,4.84
2023-01-13T04:02:10.896Z,4.83
2023-01-13T04:04:48.626Z,4.80
2023-01-13T04:07:24.901Z,4.72
2023-01-13T04:09:56.482Z,4.70
2023-01-13T04:12:51.495Z,4.89
2023-01-13T04:15:21.355Z,4.91
2023-01-13T04:17:48.133Z,4.78
2023-01-13T04:20:14.982Z,4.73
2023-01-13T04:22:41.602Z,4.66
2023-01-13T04:25:08.991Z,4.55
2023-01-13T04:27:35.742Z,4.64
2023-01-13T04:30:02.791Z,4.69
2023-01-13T04:32:29.520Z,4.67
2023-01-13T04:34:56.271Z,4.70
2023-01-13T04:37:22.912Z,4.65
2023-01-13T04:39:49.592Z,4.68
2023-01-13T04:42:16.266Z,4.60
2023-01-13T04:44:42.920Z,4.62
2023-01-13T04:47:09.586Z,4.55
2023-01-13T04:49:36.272Z,4.54
2023-01-13T04:52:04.034Z,4.64
2023-01-13T04:54:30.735Z,4.63
2023-01-13T04:56:57.659Z,4.43
2023-01-13T04:59:24.337Z,4.45
2023-01-13T05:01:51.181Z,4.53
2023-01-13T05:04:17.875Z,4.51
2023-01-13T05:06:44.608Z,4.50
2023-01-13T05:09:13.432Z,4.51
2023-01-13T05:11:58.406Z,4.53
2023-01-13T05:14:43.756Z,4.55
2023-01-13T05:17:23.878Z,4.54
2023-01-13T05:19:50.586Z,4.46
2023-01-13T05:22:36.166Z,4.46
2023-01-13T05:25:21.271Z,4.44
2023-01-13T05:27:49.359Z,4.49
2023-01-13T05:30:17.231Z,4.47
2023-01-13T05:32:44.146Z,4.42
2023-01-13T05:35:10.887Z,4.46
2023-01-13T05:37:37.884Z,4.46
2023-01-13T05:40:24.096Z,4.48
2023-01-13T05:43:23.088Z,4.57
2023-01-13T05:46:09.127Z,4.61
2023-01-13T05:48:38.466Z,4.66
2023-01-13T05:51:07.565Z,4.62
2023-01-13T05:53:34.444Z,4.59
2023-01-13T05:56:04.671Z,4.64
2023-01-13T05:58:31.365Z,4.65
2023-01-13T06:01:06.864Z,4.67
2023-01-13T06:03:33.895Z,4.60
2023-01-13T06:06:02.258Z,4.72
2023-01-13T06:08:29.692Z,4.63
2023-01-13T06:10:56.660Z,4.64
2023-01-13T06:13:25.335Z,4.60
2023-01-13T06:15:52.205Z,4.64
2023-01-13T06:18:18.936Z,4.69
2023-01-13T06:20:47.181Z,4.66
2023-01-13T06:23:14.134Z,4.68
2023-01-13T06:26:05.608Z,4.69
2023-01-13T06:28:33.364Z,4.69
2023-01-13T06:31:05.265Z,4.78
2023-01-13T06:33:39.192Z,4.77
2023-01-13T06:36:12.533Z,4.77
2023-01-13T06:38:43.580Z,4.75
2023-01-13T06:41:10.291Z,4.74
2023-01-13T06:43:39.116Z,4.88
2023-01-13T06:46:06.071Z,4.95
2023-01-13T06:48:35.245Z,4.87
2023-01-13T06:51:03.435Z,4.93
2023-01-13T06:53:30.227Z,4.92
2023-01-13T06:55:56.821Z,5.08
2023-01-13T06:58:23.489Z,5.11
2023-01-13T07:00:51.651Z,5.08
2023-01-13T07:03:19.255Z,5.09
2023-01-13T07:05:56.274Z,5.09
2023-01-13T07:08:24.533Z,5.18
2023-01-13T07:10:51.592Z,5.07
2023-01-13T07:13:37.209Z,5.15
2023-01-13T07:16:06.108Z,5.24
2023-01-13T07:18:35.002Z,5.40
2023-01-13T07:21:10.591Z,5.65
2023-01-13T07:23:39.683Z,5.54
2023-01-13T07:26:08.051Z,5.44
2023-01-13T07:28:35.566Z,5.42
2023-01-13T07:31:02.612Z,5.34
2023-01-13T07:33:33.127Z,5.51
2023-01-13T07:36:02.589Z,5.43
2023-01-13T07:38:30.764Z,5.54
2023-01-13T07:40:57.628Z,5.95
2023-01-13T07:43:33.211Z,6.09
2023-01-13T07:46:05.402Z,5.87
2023-01-13T07:48:34.198Z,5.89
2023-01-13T07:51:07.460Z,5.85
2023-01-13T07:53:34.657Z,5.78
2023-01-13T07:56:02.491Z,5.77
2023-01-13T07:58:29.953Z,6.10
2023-01-13T08:00:57.914Z,6.10
2023-01-13T08:03:25.179Z,6.16
2023-01-13T08:05:51.947Z,6.39
2023-01-13T08:08:19.136Z,6.00
2023-01-13T08:10:45.904Z,6.02
2023-01-13T08:16:15.477Z,6.46
2023-01-13T08:18:43.145Z,6.48
2023-01-13T08:21:14.658Z,6.64
2023-01-13T08:23:45.367Z,6.79
2023-01-13T08:26:17.718Z,6.53
2023-01-13T08:28:45.411Z,6.55
2023-01-13T08:31:15.976Z,6.55
2023-01-13T08:33:42.853Z,6.62
2023-01-13T08:36:12.509Z,6.45
2023-01-13T08:38:40.738Z,6.45
2023-01-13T08:41:12.653Z,6.57
2023-01-13T08:43:39.379Z,6.39
2023-01-13T08:46:07.201Z,6.22
2023-01-13T08:48:34.117Z,6.15
2023-01-13T08:51:08.887Z,6.23
2023-01-13T08:53:35.713Z,6.11
2023-01-13T08:56:02.465Z,6.11
2023-01-13T08:58:29.117Z,6.28
2023-01-13T09:00:55.882Z,6.16
2023-01-13T09:03:22.573Z,6.21
2023-01-13T09:05:49.182Z,6.21
2023-01-13T09:08:15.831Z,6.25
2023-01-13T09:10:42.513Z,6.23
2023-01-13T09:13:13.129Z,6.36
2023-01-13T09:15:45.217Z,6.31
2023-01-13T09:18:13.040Z,6.26
2023-01-13T09:20:39.774Z,6.17
2023-01-13T09:23:10.086Z,6.20
2023-01-13T09:25:37.491Z,6.56
2023-01-13T09:28:05.208Z,6.68
2023-01-13T09:30:32.010Z,6.81
2023-01-13T09:33:18.363Z,6.74
2023-01-13T09:35:45.068Z,6.87
2023-01-13T09:38:11.739Z,6.83
2023-01-13T09:40:41.540Z,6.61
2023-01-13T09:43:42.374Z,6.66
2023-01-13T09:46:37.046Z,6.89
2023-01-13T09:49:04.403Z,6.69
2023-01-13T09:51:38.695Z,6.71
2023-01-13T09:54:28.744Z,6.57
2023-01-13T09:56:55.401Z,6.64
2023-01-13T09:59:22.105Z,6.83
2023-01-13T10:02:31.644Z,6.53
2023-01-13T10:05:07.145Z,6.40
2023-01-13T10:07:40.123Z,6.56
2023-01-13T10:10:16.941Z,6.82
2023-01-13T10:13:04.339Z,6.85
2023-01-13T10:15:32.431Z,6.75
2023-01-13T10:18:33.536Z,6.90
2023-01-13T10:21:41.590Z,6.79
2023-01-13T10:24:39.889Z,6.73
2023-01-13T10:27:28.300Z,6.60
2023-01-13T10:29:55.288Z,6.67
2023-01-13T10:32:23.303Z,6.62
2023-01-13T10:34:52.078Z,6.62
2023-01-13T10:37:24.715Z,6.87
2023-01-13T10:39:55.565Z,6.96
2023-01-13T10:42:24.079Z,7.07
2023-01-13T10:44:54.812Z,7.10
2023-01-13T10:47:28.670Z,7.08
2023-01-13T10:50:13.379Z,7.13
2023-01-13T10:53:00.478Z,7.11
2023-01-13T10:55:38.833Z,6.84
2023-01-13T10:58:18.404Z,6.96
2023-01-13T11:00:45.936Z,7.15
2023-01-13T11:03:21.756Z,7.07
2023-01-13T11:05:56.949Z,7.33
2023-01-13T11:08:41.301Z,7.31
2023-01-13T11:11:37.844Z,7.02
2023-01-13T11:14:32.064Z,6.87
2023-01-13T11:17:01.944Z,6.76
2023-01-13T11:19:31.847Z,6.80
2023-01-13T11:22:01.833Z,6.83
2023-01-13T11:24:45.073Z,7.14
2023-01-13T11:27:39.047Z,7.11
2023-01-13T11:30:30.483Z,6.85
2023-01-13T11:33:06.144Z,7.02
2023-01-13T11:35:37.957Z,7.09
2023-01-13T11:38:35.777Z,7.17
2023-01-13T11:41:20.964Z,7.18
2023-01-13T11:44:25.724Z,7.30
2023-01-13T11:46:53.925Z,7.20
2023-01-13T11:49:26.497Z,7.10
2023-01-13T11:52:16.108Z,7.15
2023-01-13T11:55:00.897Z,7.24
2023-01-13T11:58:01.446Z,7.21
2023-01-13T12:00:40.030Z,7.19
2023-01-13T12:03:24.677Z,7.08
2023-01-13T12:06:28.789Z,6.97
2023-01-13T12:09:25.640Z,6.93
2023-01-13T12:12:22.228Z,6.93
2023-01-13T12:15:03.760Z,6.89
2023-01-13T12:17:42.108Z,7.00
2023-01-13T12:20:45.018Z,7.05
2023-01-13T12:23:46.297Z,6.96
2023-01-13T12:26:16.633Z,6.85
2023-01-13T12:28:52.954Z,6.93
2023-01-13T12:31:21.791Z,6.87
2023-01-13T12:33:54.956Z,6.83
2023-01-13T12:36:47.867Z,7.12
2023-01-13T12:39:23.444Z,7.07
2023-01-13T12:42:16.320Z,6.98
2023-01-13T12:45:16.837Z,7.07
2023-01-13T12:47:48.926Z,6.98
2023-01-13T12:50:27.590Z,7.07
2023-01-13T12:52:59.180Z,7.16
2023-01-13T12:55:32.485Z,7.49
2023-01-13T12:58:08.040Z,7.60
2023-01-13T13:00:54.411Z,7.66
2023-01-13T13:03:29.271Z,7.71
2023-01-13T13:05:55.921Z,7.43
2023-01-13T13:08:22.471Z,7.47
2023-01-13T13:11:06.577Z,7.63
2023-01-13T13:13:48.696Z,7.82
2023-01-13T13:16:27.510Z,7.58
2023-01-13T13:19:22.878Z,7.79
2023-01-13T13:22:14.468Z,7.76
2023-01-13T13:24:43.180Z,7.56
2023-01-13T13:27:25.134Z,7.49
2023-01-13T13:30:10.331Z,7.53
2023-01-13T13:32:58.793Z,7.64
2023-01-13T13:35:52.034Z,7.91
2023-01-13T13:39:08.442Z,7.99
2023-01-13T13:41:55.378Z,7.96
2023-01-13T13:44:45.708Z,7.98
2023-01-13T13:47:12.638Z,7.67
2023-01-13T13:49:49.414Z,7.70
2023-01-13T13:52:21.805Z,7.78
2023-01-13T13:54:52.759Z,7.62
2023-01-13T13:57:33.379Z,7.56
2023-01-13T14:00:01.086Z,7.58
2023-01-13T14:02:30.639Z,7.55
2023-01-13T14:05:24.047Z,7.69
2023-01-13T14:08:01.368Z,7.61
2023-01-13T14:10:37.733Z,7.83
2023-01-13T14:13:18.965Z,7.82
2023-01-13T14:15:47.907Z,7.48
2023-01-13T14:18:19.140Z,7.38
2023-01-13T14:20:58.768Z,7.30
2023-01-13T14:23:28.664Z,7.33
2023-01-13T14:26:01.108Z,7.28
2023-01-13T14:28:32.446Z,7.28
2023-01-13T14:31:00.352Z,7.06
2023-01-13T14:33:38.903Z,7.31
2023-01-13T14:36:17.614Z,7.00
2023-01-13T14:38:47.697Z,6.86
2023-01-13T14:41:17.403Z,6.87
2023-01-13T14:43:50.849Z,6.85
2023-01-13T14:46:22.741Z,6.89
2023-01-13T14:48:53.485Z,6.90
2023-01-13T14:51:26.620Z,6.95
2023-01-13T14:53:54.124Z,7.03
2023-01-13T14:56:55.202Z,6.84
2023-01-13T14:59:35.271Z,6.78
2023-01-13T15:02:23.460Z,6.60
2023-01-13T15:04:53.995Z,6.63
2023-01-13T15:07:25.642Z,6.63
2023-01-13T15:10:01.134Z,6.67
2023-01-13T15:12:40.826Z,6.72
2023-01-13T15:15:23.021Z,6.70
2023-01-13T15:17:49.946Z,6.62
2023-01-13T15:20:19.326Z,6.57
2023-01-13T15:22:47.406Z,6.64
2023-01-13T15:25:15.068Z,6.63
2023-01-13T15:27:44.165Z,6.77
2023-01-13T15:30:20.585Z,6.70
2023-01-13T15:32:47.542Z,6.54
2023-01-13T15:35:16.079Z,6.59
2023-01-13T15:37:44.452Z,6.47
2023-01-13T15:40:16.334Z,6.35
2023-01-13T15:43:01.584Z,6.28
2023-01-13T15:45:47.589Z,6.34
2023-01-13T15:48:14.354Z,6.58
2023-01-13T15:50:41.120Z,6.70
2023-01-13T15:53:10.654Z,6.71
2023-01-13T15:55:39.027Z,6.60
2023-01-13T15:58:06.311Z,6.48
2023-01-13T16:00:33.093Z,6.34
2023-01-13T16:03:00.136Z,6.31
2023-01-13T16:05:26.819Z,6.45
2023-01-13T16:07:53.514Z,6.54
2023-01-13T16:10:23.893Z,6.47
2023-01-13T16:12:50.626Z,6.43
2023-01-13T16:15:19.020Z,6.54
2023-01-13T16:17:46.595Z,6.13
2023-01-13T16:20:18.504Z,6.02
2023-01-13T16:22:45.535Z,5.90
2023-01-13T16:25:20.630Z,5.88
2023-01-13T16:27:47.897Z,5.92
2023-01-13T16:30:37.168Z,5.91
2023-01-13T16:33:04.010Z,5.79
2023-01-13T16:35:32.332Z,5.79
2023-01-13T16:37:59.966Z,5.71
2023-01-13T16:40:33.436Z,5.75
2023-01-13T16:43:01.880Z,5.77
2023-01-13T16:45:28.970Z,5.96
2023-01-13T16:47:55.968Z,5.93
2023-01-13T16:50:41.958Z,6.04
2023-01-13T16:53:09.902Z,6.09
2023-01-13T16:55:38.578Z,6.13
2023-01-13T16:58:06.064Z,6.11
2023-01-13T17:00:32.889Z,6.04
2023-01-13T17:03:02.049Z,6.02
2023-01-13T17:05:29.222Z,5.85
2023-01-13T17:07:57.153Z,5.75
2023-01-13T17:10:25.115Z,5.97
2023-01-13T17:12:51.881Z,6.05
2023-01-13T17:15:20.362Z,6.05
2023-01-13T17:17:53.428Z,6.05
2023-01-13T17:20:20.175Z,5.97
2023-01-13T17:22:49.773Z,6.08
2023-01-13T17:25:21.575Z,6.19
2023-01-13T17:27:48.253Z,6.05
2023-01-13T17:30:15.207Z,5.98
2023-01-13T17:32:41.973Z,5.94
2023-01-13T17:35:09.195Z,5.93
2023-01-13T17:37:35.875Z,6.05
2023-01-13T17:40:02.545Z,6.02
2023-01-13T17:42:29.720Z,6.14
2023-01-13T17:44:56.577Z,6.18
2023-01-13T17:47:23.657Z,6.11
2023-01-13T17:49:50.357Z,6.24
2023-01-13T17:52:16.991Z,6.26
2023-01-13T17:54:44.009Z,6.29
2023-01-13T17:57:10.825Z,6.42
2023-01-13T17:59:37.464Z,6.32
2023-01-13T18:02:04.921Z,6.40
2023-01-13T18:04:31.833Z,6.38
2023-01-13T18:06:58.522Z,6.18
2023-01-13T18:09:26.196Z,6.09
2023-01-13T18:11:52.860Z,6.21
2023-01-13T18:14:22.537Z,6.16
2023-01-13T18:16:49.423Z,6.22
2023-01-13T18:19:34.576Z,6.14
2023-01-13T18:22:19.878Z,6.10
2023-01-13T18:25:05.426Z,5.98
2023-01-13T18:27:35.247Z,6.19
2023-01-13T18:30:03.007Z,6.17
2023-01-13T18:32:33.131Z,6.24
2023-01-13T18:35:07.485Z,6.20
2023-01-13T18:37:42.208Z,6.25
2023-01-13T18:40:12.136Z,6.34
2023-01-13T18:42:51.425Z,6.26
2023-01-13T18:45:20.774Z,6.08
2023-01-13T18:47:47.456Z,5.83
2023-01-13T18:50:14.206Z,5.80
2023-01-13T18:52:41.434Z,5.82
2023-01-13T18:55:08.637Z,5.85
2023-01-13T18:57:40.050Z,5.85
2023-01-13T19:00:12.717Z,5.93
2023-01-13T19:02:39.790Z,5.85
2023-01-13T19:05:07.358Z,5.89
2023-01-13T19:07:35.810Z,5.85
2023-01-13T19:10:04.479Z,5.90
2023-01-13T19:12:31.493Z,5.89
2023-01-13T19:14:59.194Z,5.99
2023-01-13T19:17:27.722Z,6.06
2023-01-13T19:19:56.057Z,5.89
2023-01-13T19:22:27.415Z,6.05
2023-01-13T19:24:54.181Z,6.14
2023-01-13T19:27:21.864Z,6.09
2023-01-13T19:29:52.396Z,6.00
2023-01-13T19:32:22.599Z,6.01
2023-01-13T19:34:51.229Z,5.99
2023-01-13T19:37:19.366Z,5.97
2023-01-13T19:39:46.067Z,5.83
2023-01-13T19:42:32.535Z,6.26
2023-01-13T19:45:18.453Z,6.28
2023-01-13T19:47:46.100Z,6.36
2023-01-13T19:50:14.042Z,6.57
2023-01-13T19:52:42.168Z,6.68
2023-01-13T19:55:09.859Z,6.64
2023-01-13T19:57:38.248Z,6.61
2023-01-13T20:00:08.610Z,6.58
2023-01-13T20:02:37.030Z,6.75
2023-01-13T20:05:06.602Z,6.58
2023-01-13T20:07:35.383Z,6.60
2023-01-13T20:10:02.375Z,6.80
2023-01-13T20:12:29.927Z,6.79
2023-01-13T20:14:56.687Z,6.91
2023-01-13T20:17:25.688Z,6.98
2023-01-13T20:19:53.053Z,6.95
2023-01-13T20:22:19.680Z,7.00
2023-01-13T20:24:46.315Z,6.97
2023-01-13T20:27:12.916Z,6.89
2023-01-13T20:29:39.777Z,6.78
2023-01-13T20:32:06.478Z,6.84
2023-01-13T20:34:33.300Z,6.76
2023-01-13T20:37:00.383Z,6.87
2023-01-13T20:39:27.209Z,7.04
2023-01-13T20:42:13.359Z,6.92
2023-01-13T20:44:40.690Z,7.13
2023-01-13T20:47:08.118Z,6.76
2023-01-13T20:49:36.962Z,6.67
2023-01-13T20:52:09.532Z,6.67
2023-01-13T20:54:40.815Z,6.53
2023-01-13T20:57:10.044Z,6.52
2023-01-13T21:00:11.790Z,6.35
2023-01-13T21:02:40.238Z,6.27
2023-01-13T21:05:07.325Z,6.37
2023-01-13T21:07:33.988Z,6.36
2023-01-13T21:10:01.032Z,6.40
2023-01-13T21:12:46.180Z,6.38
2023-01-13T21:15:20.135Z,6.44
2023-01-13T21:18:07.389Z,6.63
2023-01-13T21:20:37.052Z,6.85
2023-01-13T21:23:05.215Z,6.87
2023-01-13T21:25:35.139Z,6.74
2023-01-13T21:28:12.284Z,6.76
2023-01-13T21:30:39.290Z,6.59
2023-01-13T21:33:06.496Z,6.59
2023-01-13T21:35:33.371Z,6.53
2023-01-13T21:38:00.108Z,6.53
2023-01-13T21:40:27.228Z,6.38
2023-01-13T21:43:12.266Z,6.47
2023-01-13T21:45:58.174Z,6.53
2023-01-13T21:48:24.908Z,6.43
2023-01-13T21:50:51.540Z,6.48
2023-01-13T21:53:18.214Z,6.41
2023-01-13T21:55:44.911Z,6.38
2023-01-13T21:58:14.093Z,6.39
2023-01-13T22:00:43.528Z,6.39
2023-01-13T22:03:12.539Z,6.38
2023-01-13T22:05:39.976Z,6.27
2023-01-13T22:08:07.467Z,6.25
2023-01-13T22:10:34.529Z,6.24
2023-01-13T22:13:22.850Z,6.33
2023-01-13T22:15:49.807Z,6.31
2023-01-13T22:18:18.329Z,6.35
2023-01-13T22:20:45.648Z,6.32
2023-01-13T22:23:13.888Z,6.27
2023-01-13T22:25:40.531Z,6.28
2023-01-13T22:28:09.218Z,6.31
2023-01-13T22:30:35.977Z,6.37
2023-01-13T22:33:02.632Z,6.38
2023-01-13T22:35:29.318Z,6.34
2023-01-13T22:37:55.976Z,6.32
2023-01-13T22:40:22.572Z,6.35
2023-01-13T22:42:49.231Z,6.37
2023-01-13T22:45:16.074Z,6.26
2023-01-13T22:47:42.775Z,6.28
2023-01-13T22:50:09.961Z,6.36
2023-01-13T22:52:36.693Z,6.36
2023-01-13T22:55:04.022Z,6.34
2023-01-13T22:57:36.069Z,6.41
2023-01-13T23:00:06.188Z,6.35
2023-01-13T23:02:34.589Z,6.40
2023-01-13T23:05:01.633Z,6.39
2023-01-13T23:10:23.113Z,6.76
2023-01-13T23:12:49.779Z,6.80
2023-01-13T23:15:16.439Z,6.92
2023-01-13T23:17:43.152Z,7.07
2023-01-13T23:20:10.536Z,7.10
2023-01-13T23:22:38.781Z,7.02
2023-01-13T23:25:05.828Z,6.71
2023-01-13T23:27:32.900Z,6.64
2023-01-13T23:29:59.577Z,6.48
2023-01-13T23:32:26.463Z,6.31
2023-01-13T23:34:53.070Z,6.24
2023-01-13T23:37:19.726Z,6.35
2023-01-13T23:39:46.369Z,6.32
2023-01-13T23:42:13.073Z,6.20
2023-01-13T23:44:39.706Z,6.18
2023-01-13T23:47:06.432Z,6.04
2023-01-13T23:49:33.093Z,6.05
2023-01-13T23:51:59.832Z,6.03
2023-01-13T23:54:26.615Z,6.01
2023-01-13T23:56:53.290Z,6.09
2023-01-13T23:59:20.156Z,6.13
